createdAt,value
2022-12-31T00:00:00.825Z,7.4
2022-12-31T00:05:00.780Z,7.3
2022-12-31T00:10:00.746Z,7.3
2022-12-31T00:15:00.791Z,7.3
2022-12-31T00:20:00.731Z,7.3
2022-12-31T00:25:00.810Z,7.4
2022-12-31T00:30:04.365Z,7.4
2022-12-31T00:35:00.867Z,7.4
2022-12-31T00:40:00.786Z,7.5
2022-12-31T00:45:00.811Z,7.5
2022-12-31T00:50:00.811Z,7.4
2022-12-31T00:55:00.788Z,7.3
2022-12-31T01:00:00.728Z,7.4
2022-12-31T01:05:00.823Z,7.3
2022-12-31T01:10:00.783Z,7.3
2022-12-31T01:15:00.798Z,7.4
2022-12-31T01:20:00.783Z,7.4
2022-12-31T01:25:00.793Z,7.3
2022-12-31T01:30:00.783Z,7.2
2022-12-31T01:35:00.776Z,7.1
2022-12-31T01:40:00.798Z,7.1
2022-12-31T01:45:00.513Z,7.1
2022-12-31T01:50:00.742Z,7.1
2022-12-31T01:55:00.821Z,7.1
2022-12-31T02:00:00.730Z,7.1
2022-12-31T02:05:00.777Z,7.1
2022-12-31T02:10:00.727Z,7.1
2022-12-31T02:15:00.795Z,7.1
2022-12-31T02:20:00.769Z,7.1
2022-12-31T02:25:00.740Z,7.1
2022-12-31T02:30:00.734Z,7.1
2022-12-31T02:35:00.715Z,7.1
2022-12-31T02:40:00.743Z,7.1
2022-12-31T02:45:00.756Z,7.1
2022-12-31T02:50:00.831Z,7.1
2022-12-31T02:55:00.735Z,7.2
2022-12-31T03:00:00.772Z,7.2
2022-12-31T03:05:00.798Z,7.2
2022-12-31T03:10:00.807Z,7.2
2022-12-31T03:15:00.725Z,7.2
2022-12-31T03:25:00.795Z,7.3
2022-12-31T03:30:00.729Z,7.3
2022-12-31T03:35:00.746Z,7.3
2022-12-31T03:40:00.750Z,7.4
2022-12-31T03:45:00.706Z,7.3
2022-12-31T03:50:00.744Z,7.4
2022-12-31T03:55:00.719Z,7.4
2022-12-31T04:00:00.721Z,7.5
2022-12-31T04:05:00.732Z,7.5
2022-12-31T04:10:00.808Z,7.5
2022-12-31T04:15:00.842Z,7.5
2022-12-31T04:20:00.775Z,7.6
2022-12-31T04:25:00.767Z,7.7
2022-12-31T04:30:00.766Z,7.8
2022-12-31T04:35:00.770Z,8
2022-12-31T04:40:05.708Z,8
2022-12-31T04:45:00.777Z,8
2022-12-31T04:50:00.751Z,8
2022-12-31T04:55:00.746Z,7.9
2022-12-31T05:00:00.748Z,8
2022-12-31T05:05:00.757Z,7.9
2022-12-31T05:10:00.817Z,7.9
2022-12-31T05:15:00.724Z,7.9
2022-12-31T05:20:00.755Z,7.9
2022-12-31T05:25:00.832Z,7.9
2022-12-31T05:30:00.833Z,7.9
2022-12-31T05:35:00.707Z,7.9
2022-12-31T05:40:00.732Z,7.9
2022-12-31T05:45:00.748Z,7.9
2022-12-31T05:50:00.825Z,7.8
2022-12-31T05:55:00.760Z,7.8
2022-12-31T06:00:00.723Z,7.8
2022-12-31T06:05:00.783Z,7.7
2022-12-31T06:10:00.744Z,7.7
2022-12-31T06:15:00.734Z,7.7
2022-12-31T06:20:01.233Z,7.8
2022-12-31T06:25:00.752Z,7.8
2022-12-31T06:30:00.736Z,7.9
2022-12-31T06:35:00.769Z,7.9
2022-12-31T06:40:00.725Z,8
2022-12-31T06:45:00.764Z,8
2022-12-31T06:50:00.944Z,7.9
2022-12-31T06:55:00.800Z,7.8
2022-12-31T07:00:00.772Z,7.6
2022-12-31T07:05:00.764Z,7.6
2022-12-31T07:10:00.710Z,7.5
2022-12-31T07:15:00.735Z,7.5
2022-12-31T07:20:00.760Z,7.5
2022-12-31T07:25:00.720Z,7.5
2022-12-31T07:30:00.708Z,7.4
2022-12-31T07:35:00.734Z,7.5
2022-12-31T07:40:00.738Z,7.4
2022-12-31T07:45:00.718Z,7.4
2022-12-31T07:50:00.697Z,7.4
2022-12-31T07:55:00.726Z,7.4
2022-12-31T08:00:00.787Z,7.4
2022-12-31T08:05:00.710Z,7.3
2022-12-31T08:10:00.783Z,7.4
2022-12-31T08:15:00.773Z,7.3
2022-12-31T08:20:00.708Z,7.3
2022-12-31T08:25:00.697Z,7.3
2022-12-31T08:30:00.743Z,7.4
2022-12-31T08:35:00.756Z,7.6
2022-12-31T08:40:00.707Z,7.8
2022-12-31T08:50:00.727Z,7.8
2022-12-31T08:55:00.727Z,7.9
2022-12-31T09:00:00.744Z,8
2022-12-31T09:05:00.740Z,8
2022-12-31T09:10:00.692Z,8.1
2022-12-31T09:15:00.715Z,8.2
2022-12-31T09:20:00.728Z,8.2
2022-12-31T09:25:00.755Z,8.3
2022-12-31T09:30:00.710Z,8.4
2022-12-31T09:35:00.712Z,8.5
2022-12-31T09:40:00.754Z,8.7
2022-12-31T09:45:00.742Z,8.8
2022-12-31T09:50:00.715Z,8.8
2022-12-31T09:55:00.749Z,9
2022-12-31T10:00:00.751Z,8.8
2022-12-31T10:05:00.737Z,8.9
2022-12-31T10:10:00.713Z,8.8
2022-12-31T10:15:00.694Z,8.9
2022-12-31T10:20:00.762Z,8.8
2022-12-31T10:25:00.735Z,8.8
2022-12-31T10:30:00.701Z,9
2022-12-31T10:35:00.758Z,9
2022-12-31T10:40:00.745Z,9.1
2022-12-31T10:45:00.773Z,8.9
2022-12-31T10:50:00.772Z,9
2022-12-31T10:55:00.719Z,8.9
2022-12-31T11:00:00.716Z,9.1
2022-12-31T11:05:00.675Z,9
2022-12-31T11:10:00.773Z,9
2022-12-31T11:15:00.756Z,9.1
2022-12-31T11:20:00.728Z,9.3
2022-12-31T11:25:00.763Z,9.3
2022-12-31T11:30:00.800Z,9.4
2022-12-31T11:35:00.762Z,9.3
2022-12-31T11:40:00.795Z,9.7
2022-12-31T11:45:00.788Z,9.9
2022-12-31T11:50:00.769Z,10.1
2022-12-31T11:55:00.800Z,9.9
2022-12-31T12:00:00.768Z,10
2022-12-31T12:05:03.794Z,9.9
2022-12-31T12:10:00.769Z,9.8
2022-12-31T12:15:00.753Z,10
2022-12-31T12:20:00.756Z,10.2
2022-12-31T12:25:00.797Z,10
2022-12-31T12:30:00.753Z,10.2
2022-12-31T12:35:00.822Z,10.2
2022-12-31T12:40:00.797Z,10.1
2022-12-31T12:45:00.788Z,10.1
2022-12-31T12:50:00.833Z,10.3
2022-12-31T12:55:00.750Z,10.1
2022-12-31T13:00:00.685Z,10.1
2022-12-31T13:05:00.782Z,9.9
2022-12-31T13:10:00.762Z,10.1
2022-12-31T13:15:00.742Z,10.1
2022-12-31T13:20:00.787Z,10
2022-12-31T13:25:00.769Z,9.8
2022-12-31T13:30:00.762Z,9.8
2022-12-31T13:35:00.741Z,10
2022-12-31T13:40:00.739Z,10
2022-12-31T13:45:00.776Z,9.8
2022-12-31T13:50:00.725Z,9.8
2022-12-31T13:55:00.753Z,9.7
2022-12-31T14:00:00.758Z,9.6
2022-12-31T14:05:00.799Z,9.6
2022-12-31T14:10:00.801Z,9.6
2022-12-31T14:15:00.780Z,9.6
2022-12-31T14:20:00.800Z,9.5
2022-12-31T14:25:00.779Z,9.5
2022-12-31T14:30:00.749Z,9.4
2022-12-31T14:35:00.823Z,9.3
2022-12-31T14:40:00.724Z,9.2
2022-12-31T14:45:00.743Z,9.2
2022-12-31T14:50:00.825Z,9.1
2022-12-31T14:55:00.793Z,9.1
2022-12-31T15:00:00.804Z,9.1
2022-12-31T15:05:00.527Z,9
2022-12-31T15:10:00.742Z,8.9
2022-12-31T15:20:00.809Z,8.8
2022-12-31T15:25:00.743Z,8.6
2022-12-31T15:30:00.865Z,8.7
2022-12-31T15:35:00.867Z,8.6
2022-12-31T15:40:00.795Z,8.6
2022-12-31T15:45:00.810Z,8.5
2022-12-31T15:50:00.883Z,8.4
2022-12-31T15:55:00.889Z,8.3
2022-12-31T16:00:00.757Z,8.3
2022-12-31T16:05:00.827Z,8.2
2022-12-31T16:10:00.779Z,8.1
2022-12-31T16:15:00.729Z,8
2022-12-31T16:20:00.750Z,8
2022-12-31T16:25:29.984Z,8
2022-12-31T16:30:00.886Z,8
2022-12-31T16:35:00.816Z,7.9
2022-12-31T16:40:00.755Z,7.9
2022-12-31T16:45:00.735Z,7.8
2022-12-31T16:50:00.744Z,7.8
2022-12-31T16:55:00.820Z,7.7
2022-12-31T17:00:00.751Z,7.7
2022-12-31T17:05:00.746Z,7.6
2022-12-31T17:10:00.781Z,7.7
2022-12-31T17:15:00.796Z,7.6
2022-12-31T17:20:00.753Z,7.5
2022-12-31T17:25:00.763Z,7.6
2022-12-31T17:30:00.758Z,7.5
2022-12-31T17:35:00.825Z,7.5
2022-12-31T17:40:17.289Z,7.5
2022-12-31T17:45:00.747Z,7.4
2022-12-31T17:50:00.796Z,7.4
2022-12-31T17:55:00.769Z,7.4
2022-12-31T18:00:00.789Z,7.3
2022-12-31T18:05:00.769Z,7.3
2022-12-31T18:10:00.910Z,7.3
2022-12-31T18:15:00.833Z,7.3
2022-12-31T18:20:05.049Z,7.2
2022-12-31T18:25:00.837Z,7.1
2022-12-31T18:30:04.696Z,7.2
2022-12-31T18:35:00.748Z,7.1
2022-12-31T18:40:00.739Z,7.1
2022-12-31T18:45:00.738Z,7.1
2022-12-31T18:50:00.714Z,7.1
2022-12-31T18:55:00.780Z,7.1
2022-12-31T19:00:00.811Z,7
2022-12-31T19:05:00.812Z,7
2022-12-31T19:10:00.829Z,7
2022-12-31T19:15:00.730Z,6.9
2022-12-31T19:20:00.833Z,6.9
2022-12-31T19:25:00.761Z,6.9
2022-12-31T19:30:00.734Z,6.9
2022-12-31T19:35:00.834Z,6.9
2022-12-31T19:40:00.694Z,6.8
2022-12-31T19:45:00.770Z,6.8
2022-12-31T19:50:00.751Z,6.8
2022-12-31T19:55:00.773Z,6.7
2022-12-31T20:00:00.699Z,6.8
2022-12-31T20:05:00.733Z,6.7
2022-12-31T20:10:00.765Z,6.7
2022-12-31T20:15:00.727Z,6.6
2022-12-31T20:20:00.778Z,6.6
2022-12-31T20:25:00.831Z,6.6
2022-12-31T20:30:00.801Z,6.6
2022-12-31T20:35:00.784Z,6.5
2022-12-31T20:40:00.747Z,6.4
2022-12-31T20:45:00.771Z,6.4
2022-12-31T20:50:11.361Z,6.4
2022-12-31T20:55:00.676Z,6.4
2022-12-31T21:00:00.725Z,6.3
2022-12-31T21:05:00.884Z,6.4
2022-12-31T21:10:00.829Z,6.4
2022-12-31T21:15:00.708Z,6.5
2022-12-31T21:20:00.741Z,6.5
2022-12-31T21:25:00.714Z,6.5
2022-12-31T21:30:19.699Z,6.6
2022-12-31T21:35:39.983Z,6.6
2022-12-31T21:40:00.777Z,6.5
2022-12-31T21:45:00.864Z,6.5
2022-12-31T21:50:00.794Z,6.5
2022-12-31T21:55:00.730Z,6.5
2022-12-31T22:00:24.340Z,6.6
2022-12-31T22:05:02.503Z,6.6
2022-12-31T22:10:00.789Z,6.6
2022-12-31T22:15:14.151Z,6.6
2022-12-31T22:20:25.605Z,6.6
2022-12-31T22:25:00.789Z,6.6
2022-12-31T22:30:00.686Z,6.5
2022-12-31T22:35:00.763Z,6.5
2022-12-31T22:40:00.816Z,6.4
2022-12-31T22:45:00.879Z,6.3
2022-12-31T22:50:00.767Z,6.4
2022-12-31T22:55:00.776Z,6.4
2022-12-31T23:00:00.837Z,6.3
2022-12-31T23:05:14.698Z,6.3
2022-12-31T23:10:00.770Z,6.3
2022-12-31T23:15:00.705Z,6.3
2022-12-31T23:20:00.788Z,6.2
2022-12-31T23:25:00.749Z,6.2
2022-12-31T23:30:00.846Z,6.2
2022-12-31T23:35:04.655Z,6.2
2022-12-31T23:40:00.796Z,6.2
2022-12-31T23:45:00.779Z,6.2
2022-12-31T23:50:00.721Z,6.3
2022-12-31T23:55:00.683Z,6.3
